Time;durP1;ratioP1;P1;durP2;ratioP2;P2;SDS_P1;SDS_P2;PMS_P1;PMS_P2;Temp;Humidity;BMP_temperature;BMP_pressure;BME280_temperature;BME280_humidity;BME280_pressure;Samples;Min_cycle;Max_cycle;Signal;HPM_P1;HPM_P2
2022/05/04 00:02:17;;;;;;;9.68;3.05;;;;;;;9.89;64.81;102154.38;5068186;28;20074;-66
2022/05/04 00:04:42;;;;;;;7.10;2.95;;;;;;;9.73;64.95;102151.88;5066092;28;20086;-66
2022/05/04 00:07:07;;;;;;;11.35;3.00;;;;;;;9.91;64.42;102154.34;5033118;28;20445;-66
2022/05/04 00:09:32;;;;;;;23.17;5.45;;;;;;;9.80;64.47;102155.31;5037206;28;20036;-66
2022/05/04 00:11:58;;;;;;;8.30;2.95;;;;;;;9.85;64.11;102156.13;5028551;28;20029;-66
2022/05/04 00:14:25;;;;;;;10.77;3.00;;;;;;;9.81;64.01;102164.97;5046514;28;20029;-68
2022/05/04 00:16:51;;;;;;;10.02;3.28;;;;;;;9.72;64.65;102154.50;5047956;28;20025;-66
2022/05/04 00:19:17;;;;;;;22.70;8.45;;;;;;;9.84;63.88;102153.53;5046815;28;20475;-66
2022/05/04 00:21:42;;;;;;;8.05;3.10;;;;;;;9.88;63.95;102157.00;5047180;28;20071;-67
2022/05/04 00:24:07;;;;;;;7.15;3.05;;;;;;;9.77;64.77;102152.72;5028143;28;20028;-66
2022/05/04 00:26:33;;;;;;;17.10;3.40;;;;;;;9.76;64.70;102158.88;5027019;28;20040;-67
2022/05/04 00:28:58;;;;;;;5.70;2.78;;;;;;;9.77;64.58;102152.72;5026807;28;20112;-67
2022/05/04 00:31:23;;;;;;;7.88;3.08;;;;;;;9.82;64.08;102150.91;5027546;28;20017;-65
2022/05/04 00:33:49;;;;;;;6.57;2.80;;;;;;;9.70;64.11;102148.41;5027810;28;20072;-67
2022/05/04 00:36:14;;;;;;;12.50;2.92;;;;;;;9.68;63.46;102152.78;5026721;28;20029;-67
2022/05/04 00:38:39;;;;;;;17.30;3.67;;;;;;;9.67;64.06;102145.81;5027314;28;20026;-67
2022/05/04 00:41:05;;;;;;;6.68;2.67;;;;;;;9.89;63.03;102156.13;5025955;28;20042;-68
2022/05/04 00:43:30;;;;;;;12.40;2.55;;;;;;;9.84;62.89;102149.13;5026749;28;20034;-66
2022/05/04 00:45:55;;;;;;;6.85;2.30;;;;;;;9.71;63.64;102153.66;5027486;28;20079;-67
2022/05/04 00:48:21;;;;;;;10.25;2.88;;;;;;;9.71;63.61;102148.41;5027403;28;20087;-66
2022/05/04 00:50:48;;;;;;;14.15;3.30;;;;;;;9.65;64.00;102148.44;5026252;28;20395;-67
2022/05/04 00:53:13;;;;;;;11.05;3.30;;;;;;;9.66;64.18;102150.19;5027111;28;20036;-67
2022/05/04 00:55:39;;;;;;;11.88;3.90;;;;;;;9.70;63.46;102146.63;5026318;28;20030;-66
2022/05/04 01:00:51;;;;;;;11.13;2.72;;;;;;;9.80;63.50;102147.44;5027065;28;20072;-66
2022/05/04 01:03:17;;;;;;;9.27;2.72;;;;;;;9.75;63.85;102153.63;5009337;28;20053;-67
2022/05/04 01:05:43;;;;;;;4.88;2.85;;;;;;;9.65;63.92;102142.28;5026888;28;20053;-65
2022/05/04 01:08:08;;;;;;;7.20;3.25;;;;;;;9.63;63.95;102142.31;5026381;28;20045;-66
2022/05/04 01:10:34;;;;;;;7.97;3.28;;;;;;;9.58;63.66;102144.97;5046009;28;20111;-67
2022/05/04 01:12:59;;;;;;;8.85;3.22;;;;;;;9.57;63.69;102140.59;5046298;28;20018;-66
2022/05/04 01:15:25;;;;;;;6.88;3.17;;;;;;;9.61;63.41;102139.69;5045050;28;20031;-67
2022/05/04 01:17:50;;;;;;;7.90;2.70;;;;;;;9.69;63.56;102149.31;5047147;28;20032;-66
2022/05/04 01:20:17;;;;;;;4.60;2.58;;;;;;;9.60;64.24;102145.84;5046977;28;20105;-66
2022/05/04 01:22:42;;;;;;;12.80;3.72;;;;;;;9.44;64.58;102141.59;5040436;28;20040;-66
2022/05/04 01:25:09;;;;;;;11.80;3.10;;;;;;;9.45;64.48;102140.72;5029948;28;20029;-66
2022/05/04 01:27:35;;;;;;;8.20;2.97;;;;;;;9.44;64.40;102142.47;5029660;28;20357;-66
2022/05/04 01:30:00;;;;;;;7.93;3.55;;;;;;;9.47;64.18;102144.22;5031000;28;20104;-68
2022/05/04 01:32:26;;;;;;;9.25;2.95;;;;;;;9.34;63.70;102141.66;5030186;28;20025;-66
2022/05/04 01:34:52;;;;;;;7.43;2.90;;;;;;;9.27;63.40;102141.75;5031234;28;20083;-67
2022/05/04 01:37:17;;;;;;;9.68;3.17;;;;;;;9.19;63.62;102139.16;5029595;28;20114;-67
2022/05/04 01:39:42;;;;;;;10.90;2.95;;;;;;;9.08;64.34;102139.22;5027279;28;20488;-66
2022/05/04 01:42:14;;;;;;;7.82;2.67;;;;;;;9.10;63.83;102132.22;5029036;28;20029;-68
2022/05/04 01:44:41;;;;;;;10.63;3.10;;;;;;;9.06;63.83;102136.63;5029375;28;20452;-67
2022/05/04 01:47:07;;;;;;;9.38;2.47;;;;;;;9.09;63.86;102128.69;5030388;28;20358;-67
2022/05/04 01:49:32;;;;;;;6.03;2.83;;;;;;;9.03;64.14;102136.63;5028960;28;20365;-67
2022/05/04 01:51:58;;;;;;;9.80;3.13;;;;;;;8.96;64.19;102129.66;5041366;28;20075;-66
2022/05/04 01:54:23;;;;;;;8.23;3.25;;;;;;;8.91;64.49;102134.09;5047723;28;20032;-66
2022/05/04 01:56:48;;;;;;;3.88;2.60;;;;;;;8.88;64.78;102132.34;5031639;28;20479;-66
2022/05/04 01:59:14;;;;;;;8.13;3.30;;;;;;;8.82;65.04;102124.50;5050075;28;20021;-66
2022/05/04 02:01:39;;;;;;;8.80;3.10;;;;;;;8.66;65.75;102131.59;5049689;28;20021;-66
2022/05/04 02:04:05;;;;;;;8.70;2.97;;;;;;;8.62;65.82;102129.84;5048542;28;20021;-65
2022/05/04 02:06:31;;;;;;;7.68;3.20;;;;;;;8.47;66.38;102131.66;5016051;28;20329;-66
2022/05/04 02:08:59;;;;;;;6.78;2.95;;;;;;;8.37;66.64;102122.91;5030666;28;20368;-67
2022/05/04 02:11:25;;;;;;;7.83;3.13;;;;;;;8.29;66.75;102124.72;5048773;28;20551;-67
2022/05/04 02:13:51;;;;;;;6.63;3.67;;;;;;;8.19;67.36;102122.09;5050033;28;20466;-66
2022/05/04 02:16:17;;;;;;;5.80;3.30;;;;;;;8.07;67.72;102117.78;5050125;28;20402;-67
2022/05/04 02:18:42;;;;;;;5.13;3.50;;;;;;;7.99;67.91;102114.31;5049341;28;20525;-66
2022/05/04 02:21:09;;;;;;;5.70;3.03;;;;;;;7.89;68.61;102115.19;5048305;28;20574;-66
2022/05/04 02:23:34;;;;;;;10.90;4.32;;;;;;;7.78;68.82;102112.59;5048229;28;20033;-67
2022/05/04 02:26:00;;;;;;;9.13;3.72;;;;;;;7.72;69.34;102110.84;5048951;28;20487;-67
2022/05/04 02:28:25;;;;;;;11.75;3.80;;;;;;;7.71;70.33;102117.84;5049358;28;20040;-66
2022/05/04 02:30:50;;;;;;;8.20;3.92;;;;;;;7.63;70.38;102108.22;5049627;28;20017;-67
2022/05/04 02:33:16;;;;;;;10.88;4.40;;;;;;;7.65;70.10;102109.13;5049341;28;20036;-66
2022/05/04 02:38:25;;;;;;;10.45;4.22;;;;;;;7.57;70.68;102102.13;5067472;28;20559;-67
2022/05/04 02:40:50;;;;;;;8.30;3.53;;;;;;;7.52;71.32;102096.00;5068494;28;20099;-67
2022/05/04 02:43:16;;;;;;;7.72;3.60;;;;;;;7.43;71.61;102098.63;5067724;28;20403;-66
2022/05/04 02:45:41;;;;;;;8.52;3.75;;;;;;;7.38;71.72;102103.91;5029120;28;20032;-66
2022/05/04 02:48:08;;;;;;;9.20;4.00;;;;;;;7.31;72.08;102110.00;5028723;28;20487;-67
2022/05/04 02:50:34;;;;;;;8.45;3.65;;;;;;;7.24;72.17;102100.38;5028565;28;20040;-66
2022/05/04 02:52:59;;;;;;;5.60;3.17;;;;;;;7.18;72.28;102098.63;5029115;28;20041;-68
2022/05/04 02:55:24;;;;;;;15.68;4.22;;;;;;;7.11;72.42;102107.38;5048334;28;20024;-67
2022/05/04 02:57:50;;;;;;;8.38;3.78;;;;;;;7.06;72.40;102107.34;5048501;28;20025;-66
2022/05/04 03:00:15;;;;;;;5.25;3.58;;;;;;;7.02;72.62;102111.75;5047218;28;20020;-66
2022/05/04 03:02:41;;;;;;;8.85;3.40;;;;;;;6.97;72.88;102102.97;5048805;28;20064;-66
2022/05/04 03:05:08;;;;;;;6.40;3.70;;;;;;;6.93;73.03;102099.47;5048623;28;20394;-67
2022/05/04 03:07:33;;;;;;;13.68;4.35;;;;;;;6.91;73.07;102100.34;5048650;28;20060;-67
2022/05/04 03:09:59;;;;;;;9.20;4.13;;;;;;;6.91;73.21;102095.09;5029545;28;20025;-67
2022/05/04 03:12:25;;;;;;;10.77;4.18;;;;;;;6.86;73.45;102100.34;5030529;28;20025;-66
2022/05/04 03:14:51;;;;;;;7.22;4.07;;;;;;;6.83;73.29;102103.81;5048093;28;20382;-66
2022/05/04 03:17:17;;;;;;;12.13;4.88;;;;;;;6.82;73.24;102109.06;5048973;28;20021;-66
2022/05/04 03:19:43;;;;;;;14.52;5.30;;;;;;;6.86;73.32;102104.72;5048612;28;20044;-67
2022/05/04 03:22:09;;;;;;;9.07;4.15;;;;;;;6.85;73.21;102100.31;5030727;28;20360;-67
2022/05/04 03:24:34;;;;;;;6.78;4.05;;;;;;;6.83;73.15;102100.31;5048677;28;20033;-67
2022/05/04 03:27:00;;;;;;;11.27;4.80;;;;;;;6.80;73.20;102100.31;5047999;28;20087;-65
2022/05/04 03:29:25;;;;;;;13.80;3.70;;;;;;;6.76;73.35;102091.59;5047352;28;20036;-64
2022/05/04 03:31:50;;;;;;;11.68;4.70;;;;;;;6.77;73.32;102090.72;5049150;28;20025;-66
2022/05/04 03:34:16;;;;;;;11.52;5.38;;;;;;;6.79;73.63;102088.97;5048228;28;20506;-66
2022/05/04 03:36:41;;;;;;;15.50;5.45;;;;;;;6.82;74.11;102094.22;5048450;28;20036;-66
2022/05/04 03:39:07;;;;;;;9.05;4.68;;;;;;;6.88;74.23;102082.88;5046628;28;20029;-66
2022/05/04 03:41:33;;;;;;;18.65;5.15;;;;;;;6.89;73.99;102079.38;5047369;28;20025;-67
2022/05/04 03:43:59;;;;;;;16.00;5.07;;;;;;;6.91;73.35;102084.63;5029691;28;20027;-67
2022/05/04 03:46:27;;;;;;;11.40;4.05;;;;;;;6.83;73.05;102085.50;5029517;28;20079;-65
2022/05/04 03:48:54;;;;;;;10.27;4.45;;;;;;;6.78;73.47;102084.63;5047989;28;20055;-67
2022/05/04 03:51:20;;;;;;;10.88;4.75;;;;;;;6.72;73.69;102087.22;5048071;28;20108;-67
2022/05/04 03:53:49;;;;;;;10.40;3.65;;;;;;;6.63;74.05;102088.06;5046858;28;20427;-67
2022/05/04 03:56:15;;;;;;;11.10;4.88;;;;;;;6.56;74.36;102087.16;5040227;28;20047;-66
2022/05/04 03:58:41;;;;;;;8.40;4.60;;;;;;;6.51;74.41;102083.69;5027556;28;20800;-67
2022/05/04 04:01:06;;;;;;;12.07;4.32;;;;;;;6.51;74.64;102083.69;5027912;28;20083;-67
2022/05/04 04:03:32;;;;;;;13.30;4.47;;;;;;;6.49;74.81;102087.13;5027867;28;20033;-66
2022/05/04 04:05:57;;;;;;;8.82;4.70;;;;;;;6.50;75.18;102084.53;5042960;28;20052;-66
2022/05/04 04:08:22;;;;;;;9.25;4.80;;;;;;;6.47;75.19;102089.75;5046302;28;20063;-66
2022/05/04 04:10:49;;;;;;;9.90;4.88;;;;;;;6.44;75.79;102087.13;5061407;28;20108;-66
2022/05/04 04:13:15;;;;;;;9.10;4.57;;;;;;;6.47;75.71;102088.88;5052780;28;20032;-66
2022/05/04 04:15:40;;;;;;;12.07;4.93;;;;;;;6.52;75.71;102087.16;5046988;28;20104;-66
2022/05/04 04:18:06;;;;;;;13.48;5.75;;;;;;;6.52;75.54;102089.75;5047123;28;20116;-67
2022/05/04 04:23:15;;;;;;;14.60;5.63;;;;;;;6.56;75.43;102081.94;5046255;28;20106;-66
2022/05/04 04:25:40;;;;;;;13.20;5.88;;;;;;;6.54;75.58;102086.28;5046516;28;20131;-67
2022/05/04 04:28:06;;;;;;;11.18;6.00;;;;;;;6.57;75.41;102083.66;5046506;28;20452;-67
2022/05/04 04:30:32;;;;;;;11.60;5.55;;;;;;;6.65;75.53;102081.06;5028593;28;20036;-67
2022/05/04 04:32:57;;;;;;;10.23;5.95;;;;;;;6.63;75.64;102082.84;5044904;28;20060;-67
2022/05/04 04:35:23;;;;;;;14.18;6.38;;;;;;;6.60;75.96;102074.09;5046085;28;20040;-67
2022/05/04 04:37:48;;;;;;;6.65;5.25;;;;;;;6.61;75.90;102081.94;5029125;28;20032;-65
2022/05/04 04:40:13;;;;;;;9.00;4.90;;;;;;;6.68;75.70;102090.69;5045968;28;20440;-67
2022/05/04 04:42:39;;;;;;;9.77;5.13;;;;;;;6.72;75.40;102095.06;5048363;28;20479;-65
2022/05/04 04:45:05;;;;;;;13.57;5.53;;;;;;;6.75;75.35;102091.59;5060982;28;20495;-67
2022/05/04 04:47:30;;;;;;;13.25;5.97;;;;;;;6.79;75.33;102101.19;5027374;28;20072;-66
2022/05/04 04:49:56;;;;;;;13.25;5.13;;;;;;;6.83;74.93;102098.59;5047062;28;20024;-65
2022/05/04 04:52:23;;;;;;;14.23;5.45;;;;;;;6.93;74.61;102086.38;5045445;28;20100;-67
2022/05/04 04:54:49;;;;;;;17.15;5.70;;;;;;;6.97;74.57;102092.50;5028733;28;20040;-66
2022/05/04 04:57:14;;;;;;;9.93;4.65;;;;;;;7.02;74.28;102093.41;5046755;28;20092;-66
2022/05/04 04:59:40;;;;;;;17.92;6.38;;;;;;;7.05;74.00;102098.59;5049728;28;20082;-66
2022/05/04 05:02:05;;;;;;;9.95;5.28;;;;;;;7.18;73.59;102096.00;5064781;28;20029;-66
2022/05/04 05:04:30;;;;;;;16.35;5.25;;;;;;;7.26;73.80;102096.03;5070274;28;20067;-65
2022/05/04 05:06:56;;;;;;;10.65;5.22;;;;;;;7.35;72.97;102092.53;5070050;28;20047;-67
2022/05/04 05:09:21;;;;;;;10.63;5.00;;;;;;;7.37;73.41;102096.03;5051219;28;20612;-65
2022/05/04 05:11:47;;;;;;;12.25;5.00;;;;;;;7.41;73.12;102103.88;5071496;28;20028;-67
2022/05/04 05:16:56;;;;;;;11.82;4.68;;;;;;;7.54;72.81;102101.25;5070608;28;20039;-66
2022/05/04 05:19:22;;;;;;;15.63;4.68;;;;;;;7.59;72.56;102095.13;5045171;28;20371;-65
2022/05/04 05:21:47;;;;;;;12.43;5.10;;;;;;;7.68;72.44;102096.00;5041614;28;20025;-66
2022/05/04 05:24:12;;;;;;;11.35;5.28;;;;;;;7.73;72.44;102099.47;5055527;28;20036;-68
2022/05/04 05:26:38;;;;;;;8.13;5.20;;;;;;;7.81;72.20;102097.72;5070514;28;20153;-65
2022/05/04 05:29:03;;;;;;;8.30;4.40;;;;;;;7.90;71.70;102098.56;5021208;28;20076;-65
2022/05/04 05:31:28;;;;;;;13.23;4.65;;;;;;;7.97;71.23;102100.28;5039327;28;20028;-66
2022/05/04 05:33:53;;;;;;;10.38;4.63;;;;;;;8.11;70.54;102104.63;5041773;28;20517;-68
2022/05/04 05:36:19;;;;;;;14.55;5.10;;;;;;;8.13;69.48;102101.13;5039586;28;20070;-67
2022/05/04 05:38:44;;;;;;;13.52;4.28;;;;;;;8.28;69.10;102099.34;5040120;28;20048;-68
2022/05/04 05:41:09;;;;;;;12.77;5.20;;;;;;;8.37;68.46;102099.28;5040213;28;20099;-70
2022/05/04 05:43:35;;;;;;;13.40;4.53;;;;;;;8.47;68.25;102098.38;5039467;28;20100;-66
2022/05/04 05:46:00;;;;;;;13.75;4.95;;;;;;;8.48;68.37;102104.50;5038271;28;20021;-67
2022/05/04 05:48:25;;;;;;;13.38;4.82;;;;;;;8.53;67.97;102102.72;5040218;28;20394;-66
2022/05/04 05:50:51;;;;;;;10.02;4.40;;;;;;;8.64;67.11;102099.22;5040270;28;20020;-67
2022/05/04 05:53:16;;;;;;;12.32;4.45;;;;;;;8.72;66.58;102105.28;5040283;28;20033;-66
2022/05/04 05:55:42;;;;;;;11.55;4.68;;;;;;;8.76;66.28;102104.38;5038209;28;20391;-66
2022/05/04 05:58:09;;;;;;;13.77;4.20;;;;;;;8.87;65.90;102106.06;5039998;28;20060;-67
2022/05/04 06:00:35;;;;;;;15.95;4.97;;;;;;;8.92;65.48;102102.53;5038646;28;20017;-68
2022/05/04 06:03:00;;;;;;;11.90;4.97;;;;;;;8.90;65.19;102100.78;5021838;28;20505;-67
2022/05/04 06:05:25;;;;;;;9.82;5.78;;;;;;;9.02;64.92;102102.47;5037522;28;20071;-68
2022/05/04 06:07:51;;;;;;;10.43;4.70;;;;;;;9.09;64.79;102101.53;5042478;28;20251;-65
2022/05/04 06:10:16;;;;;;;11.25;4.45;;;;;;;9.20;64.59;102101.44;5042407;28;20048;-67
2022/05/04 06:12:43;;;;;;;12.00;4.28;;;;;;;9.03;63.88;102099.81;5034123;28;20117;-66
2022/05/04 06:15:10;;;;;;;6.85;3.92;;;;;;;9.22;63.73;102100.56;5051799;28;20502;-66
2022/05/04 06:17:36;;;;;;;14.73;4.57;;;;;;;9.25;63.48;102110.19;5039455;28;20074;-67
2022/05/04 06:20:05;;;;;;;12.80;4.55;;;;;;;9.19;62.83;102107.59;5016161;28;20109;-67
2022/05/04 06:22:31;;;;;;;10.52;4.10;;;;;;;9.35;62.37;102103.09;5011855;28;20029;-68
2022/05/04 06:24:56;;;;;;;12.52;3.67;;;;;;;9.47;61.83;102107.38;5037845;28;20084;-67
2022/05/04 06:27:22;;;;;;;9.55;3.90;;;;;;;9.56;61.13;102109.03;5037987;28;20498;-64
2022/05/04 06:35:15;;;;;;;13.40;4.53;;;;;;;9.57;61.88;102110.81;5046410;28;20207;-66
2022/05/04 06:37:40;;;;;;;9.80;4.28;;;;;;;9.51;61.90;102110.88;5039325;28;20679;-65
2022/05/04 06:40:06;;;;;;;8.35;4.63;;;;;;;9.65;61.47;102115.97;5035679;28;20030;-66
2022/05/04 06:42:32;;;;;;;14.80;4.40;;;;;;;9.85;61.03;102108.75;5035036;28;20044;-65
2022/05/04 06:44:58;;;;;;;11.63;4.30;;;;;;;9.90;60.45;102113.13;5069102;28;20029;-66
2022/05/04 06:47:23;;;;;;;10.73;3.78;;;;;;;9.70;59.71;102116.81;5067532;28;20111;-65
2022/05/04 06:49:48;;;;;;;10.02;4.55;;;;;;;9.92;60.11;102119.22;5069592;28;20475;-66
2022/05/04 06:52:14;;;;;;;13.05;4.22;;;;;;;9.94;60.05;102123.56;5049448;28;20041;-66
2022/05/04 06:54:39;;;;;;;14.57;3.72;;;;;;;10.09;60.68;102116.41;5048292;28;20025;-66
2022/05/04 06:57:05;;;;;;;11.65;4.03;;;;;;;10.27;59.95;102117.97;5038368;28;20463;-65
2022/05/04 06:59:30;;;;;;;7.47;3.53;;;;;;;10.46;59.23;102120.41;5039377;28;20021;-65
2022/05/04 07:01:55;;;;;;;12.65;4.22;;;;;;;10.31;58.51;102122.31;5018944;28;20294;-66
2022/05/04 07:04:21;;;;;;;8.45;3.67;;;;;;;10.27;57.94;102115.34;5021559;28;20094;-66
2022/05/04 07:06:47;;;;;;;10.77;3.78;;;;;;;10.41;57.81;102116.94;5038050;28;20495;-65
2022/05/04 07:09:12;;;;;;;6.85;4.18;;;;;;;10.40;58.42;102120.44;5018188;28;20036;-66
2022/05/04 07:11:38;;;;;;;13.90;4.70;;;;;;;10.66;57.90;102116.63;5035034;28;20160;-70
2022/05/04 07:14:03;;;;;;;15.40;4.43;;;;;;;10.59;58.33;102121.97;5037984;28;20041;-66
2022/05/04 07:16:29;;;;;;;8.20;3.92;;;;;;;10.79;58.29;102122.59;5044635;28;20017;-67
2022/05/04 07:18:54;;;;;;;17.05;4.30;;;;;;;10.85;58.35;102115.50;5046302;28;20428;-68
2022/05/04 07:21:19;;;;;;;9.20;3.72;;;;;;;11.16;57.55;102123.81;5044711;28;20037;-67
2022/05/04 07:23:45;;;;;;;14.00;4.38;;;;;;;11.51;56.15;102119.72;5037703;28;20249;-68
2022/05/04 07:26:10;;;;;;;7.47;3.53;;;;;;;11.71;55.75;102115.88;5041093;28;20734;-69
2022/05/04 07:31:09;;;;;;;9.15;3.90;;;;;;;11.84;55.10;102114.75;3634831;22;22194;-65
2022/05/04 07:33:34;;;;;;;8.98;3.60;;;;;;;11.97;54.68;102115.38;5032712;28;20522;-63
2022/05/04 07:36:00;;;;;;;6.57;3.55;;;;;;;12.13;54.14;102115.09;5015164;28;20025;-64
2022/05/04 07:38:25;;;;;;;9.93;4.22;;;;;;;12.26;53.50;102113.09;5024582;28;20063;-63
2022/05/04 07:43:34;;;;;;;14.63;4.55;;;;;;;12.42;53.40;102116.28;5027538;28;20064;-63
2022/05/04 07:45:59;;;;;;;13.00;5.68;;;;;;;12.26;54.55;102113.94;5015727;28;20048;-64
2022/05/04 07:48:25;;;;;;;19.88;6.15;;;;;;;12.29;54.30;102115.66;5020616;28;20414;-63
2022/05/04 07:50:50;;;;;;;11.80;5.32;;;;;;;12.32;54.57;102120.91;5012410;28;20025;-65
2022/05/04 07:53:15;;;;;;;13.98;5.63;;;;;;;12.34;54.28;102116.44;5014291;28;20031;-64
2022/05/04 07:55:41;;;;;;;11.63;5.38;;;;;;;12.37;54.72;102116.38;5026484;28;20399;-64
2022/05/04 07:58:06;;;;;;;10.40;6.10;;;;;;;12.10;55.63;102115.19;5027197;28;20033;-64
2022/05/04 08:06:16;;;;;;;11.10;5.72;;;;;;;12.32;54.70;102120.91;5008390;28;20040;-63
2022/05/04 08:08:41;;;;;;;12.23;6.90;;;;;;;12.52;53.75;102114.28;5005581;28;20406;-64
2022/05/04 08:11:08;;;;;;;11.85;6.47;;;;;;;12.61;54.42;102116.75;5007643;28;20049;-64
2022/05/04 08:13:34;;;;;;;11.45;6.20;;;;;;;12.57;54.16;102116.84;5007181;28;20124;-65
2022/05/04 08:16:00;;;;;;;13.43;6.80;;;;;;;12.64;53.55;102116.69;5012326;28;20509;-64
2022/05/04 08:18:26;;;;;;;12.43;6.40;;;;;;;12.49;54.30;102123.16;5008464;28;20033;-65
2022/05/04 08:20:52;;;;;;;12.20;6.38;;;;;;;12.45;54.37;102117.97;5020801;28;20108;-66
2022/05/04 08:23:17;;;;;;;10.27;6.00;;;;;;;12.52;54.44;102116.94;5022492;28;20035;-63
2022/05/04 08:25:44;;;;;;;14.25;6.47;;;;;;;12.49;54.39;102122.28;5045361;28;20020;-64
2022/05/04 08:28:12;;;;;;;15.13;6.70;;;;;;;12.48;54.00;102117.91;5045046;28;20029;-63
2022/05/04 08:30:38;;;;;;;10.13;6.18;;;;;;;12.44;54.33;102119.78;5026216;28;20080;-64
2022/05/04 08:33:03;;;;;;;10.18;5.60;;;;;;;12.49;54.17;102122.28;5024451;28;20057;-63
2022/05/04 08:35:29;;;;;;;19.58;5.45;;;;;;;12.43;54.41;102125.09;5045746;28;20082;-63
2022/05/04 08:37:54;;;;;;;13.60;5.57;;;;;;;12.26;54.67;102121.88;5045768;28;20412;-64
2022/05/04 08:40:19;;;;;;;10.82;5.22;;;;;;;12.43;54.19;102122.44;5045876;28;20091;-65
2022/05/04 08:42:45;;;;;;;11.85;5.60;;;;;;;12.45;53.86;102120.63;5045566;28;20013;-64
2022/05/04 08:45:11;;;;;;;13.80;5.95;;;;;;;12.38;54.81;102131.31;5043659;28;20463;-64
2022/05/04 08:47:39;;;;;;;12.18;5.60;;;;;;;12.56;54.27;102121.28;5043706;28;20442;-65
2022/05/04 08:50:17;;;;;;;16.15;5.63;;;;;;;12.64;54.14;102124.59;5045412;28;20459;-65
2022/05/04 08:52:51;;;;;;;10.07;5.55;;;;;;;12.73;53.37;102120.00;5045245;28;20028;-64
2022/05/04 08:55:17;;;;;;;11.30;6.28;;;;;;;12.87;53.04;102125.88;5035111;28;20779;-65
2022/05/04 08:57:42;;;;;;;13.07;6.47;;;;;;;13.03;52.55;102122.84;5021756;28;20349;-67
2022/05/04 09:00:10;;;;;;;13.80;6.22;;;;;;;12.95;53.56;102119.53;5028996;28;20031;-65
2022/05/04 09:02:36;;;;;;;12.70;5.38;;;;;;;12.89;53.34;102116.09;5043116;28;20037;-64
2022/05/04 09:05:24;;;;;;;10.43;5.82;;;;;;;13.08;52.59;102126.28;5044682;28;20017;-63
2022/05/04 09:07:51;;;;;;;10.27;5.03;;;;;;;12.94;52.39;102118.66;5043845;28;20033;-65
2022/05/04 09:10:19;;;;;;;17.08;5.43;;;;;;;12.98;52.58;102124.75;5044183;28;20110;-66
2022/05/04 09:12:46;;;;;;;12.68;5.40;;;;;;;13.02;52.89;102119.34;5043773;28;20202;-66
2022/05/04 09:15:20;;;;;;;12.07;5.80;;;;;;;13.21;51.40;102116.25;5045657;28;20025;-65
2022/05/04 09:17:46;;;;;;;15.00;5.85;;;;;;;13.10;50.81;102113.84;5045029;28;20422;-65
2022/05/04 09:22:55;;;;;;;14.57;5.13;;;;;;;13.10;53.14;102113.84;5045966;28;20505;-65
2022/05/04 09:25:20;;;;;;;11.70;5.40;;;;;;;13.34;51.70;102111.50;5045512;28;20025;-65
2022/05/04 09:27:46;;;;;;;13.68;5.30;;;;;;;13.45;51.56;102107.75;5043700;28;20036;-64
2022/05/04 09:30:12;;;;;;;11.40;5.57;;;;;;;13.51;51.57;102104.94;5045063;28;20491;-64
2022/05/04 09:32:41;;;;;;;11.15;5.28;;;;;;;13.59;51.65;102105.63;5043095;28;20084;-65
2022/05/04 09:35:16;;;;;;;13.75;5.68;;;;;;;13.57;51.49;102096.84;5044117;28;20044;-65
2022/05/04 09:46:02;;;;;;;13.90;5.72;;;;;;;13.56;52.48;102088.94;5047950;28;20047;-63
2022/05/04 09:48:35;;;;;;;8.07;5.65;;;;;;;13.54;51.53;102088.97;5048912;28;20394;-64
2022/05/04 09:51:09;;;;;;;9.80;5.82;;;;;;;12.76;54.12;102088.19;5049289;28;20074;-66
2022/05/04 09:53:36;;;;;;;11.95;5.70;;;;;;;13.22;52.49;102085.38;5048486;28;20025;-64
2022/05/04 09:56:02;;;;;;;15.75;6.50;;;;;;;13.24;52.68;102084.41;5046810;28;20152;-64
2022/05/04 09:58:29;;;;;;;11.55;5.95;;;;;;;13.35;52.00;102085.91;5043948;28;20032;-64
2022/05/04 10:00:55;;;;;;;16.80;5.35;;;;;;;13.74;52.43;102079.63;5037507;28;20632;-64
2022/05/04 10:03:21;;;;;;;9.00;5.72;;;;;;;13.51;51.67;102086.41;5032705;28;20530;-65
2022/05/04 10:05:47;;;;;;;17.05;5.90;;;;;;;13.48;52.66;102083.81;5029305;28;20037;-65
2022/05/04 10:08:12;;;;;;;10.55;5.07;;;;;;;14.06;50.72;102087.59;5039718;28;20033;-64
2022/05/04 10:10:39;;;;;;;8.60;5.97;;;;;;;14.56;50.38;102079.03;5048914;28;20072;-64
2022/05/04 10:13:05;;;;;;;11.05;5.60;;;;;;;14.61;49.95;102085.09;5048281;28;20502;-64
2022/05/04 10:15:32;;;;;;;13.45;5.82;;;;;;;14.55;49.60;102084.41;5049936;28;20025;-63
2022/05/04 10:18:11;;;;;;;10.90;6.28;;;;;;;14.26;49.46;102079.94;5048111;28;20479;-66
2022/05/04 10:20:56;;;;;;;11.23;5.70;;;;;;;14.33;49.75;102079.75;5048377;28;20451;-64
2022/05/04 10:23:23;;;;;;;9.98;6.07;;;;;;;14.45;49.50;102081.16;5047629;28;20025;-62
2022/05/04 10:25:50;;;;;;;11.30;5.43;;;;;;;14.61;48.88;102078.91;5047350;28;20042;-64
2022/05/04 10:28:16;;;;;;;11.63;6.47;;;;;;;14.74;48.03;102076.72;5046326;28;20033;-64
2022/05/04 10:30:55;;;;;;;15.82;6.25;;;;;;;14.95;48.44;102069.03;5047328;28;20150;-64
2022/05/04 10:33:25;;;;;;;15.27;6.10;;;;;;;15.04;47.64;102079.34;5045427;28;20128;-65
2022/05/04 10:35:51;;;;;;;14.02;5.97;;;;;;;15.11;47.66;102078.22;5047094;28;20040;-63
2022/05/04 10:38:35;;;;;;;12.00;5.32;;;;;;;15.26;47.25;102066.22;5046182;28;20033;-64
2022/05/04 10:41:06;;;;;;;8.75;5.85;;;;;;;15.31;46.81;102074.03;5045408;28;20398;-64
2022/05/04 10:43:38;;;;;;;10.10;5.90;;;;;;;15.27;46.59;102067.09;5047109;28;20025;-64
2022/05/04 10:46:18;;;;;;;10.25;5.13;;;;;;;15.28;46.15;102071.47;5045756;28;20063;-63
2022/05/04 10:48:45;;;;;;;7.85;5.35;;;;;;;15.54;45.19;102081.19;5044491;28;20475;-65
2022/05/04 10:51:18;;;;;;;11.32;5.65;;;;;;;15.72;45.57;102086.78;5046467;28;20074;-66
2022/05/04 10:53:48;;;;;;;9.45;5.80;;;;;;;15.82;45.96;102074.03;5046884;28;20045;-63
2022/05/04 10:56:24;;;;;;;10.52;6.15;;;;;;;15.37;46.73;102073.81;5045712;28;20387;-65
2022/05/04 10:58:50;;;;;;;45.13;7.00;;;;;;;15.41;49.25;102070.13;5047607;28;20037;-64
2022/05/04 11:01:30;;;;;;;10.55;5.82;;;;;;;15.89;49.31;102064.91;5044889;28;20822;-65
2022/05/04 11:04:03;;;;;;;9.45;5.90;;;;;;;16.40;45.76;102070.13;5046942;28;20116;-64
2022/05/04 11:06:50;;;;;;;10.68;5.93;;;;;;;16.98;43.26;102066.97;5045046;28;20037;-65
2022/05/04 11:09:20;;;;;;;15.70;6.50;;;;;;;17.21;42.62;102065.16;5045246;28;20032;-64
2022/05/04 11:11:50;;;;;;;8.82;6.25;;;;;;;17.53;42.66;102066.44;5045008;28;20064;-65
2022/05/04 11:14:17;;;;;;;11.43;6.55;;;;;;;17.35;44.25;102068.13;5046913;28;20025;-65
2022/05/04 11:16:44;;;;;;;10.85;6.22;;;;;;;16.97;46.30;102067.88;5045853;28;20017;-66
2022/05/04 11:19:12;;;;;;;12.35;6.10;;;;;;;17.17;44.65;102059.09;5047426;28;20033;-66
2022/05/04 11:21:38;;;;;;;12.25;6.70;;;;;;;17.12;45.55;102058.41;5045352;28;20090;-66
2022/05/04 11:24:06;;;;;;;15.75;7.18;;;;;;;17.47;45.04;102065.84;5047164;28;20032;-65
2022/05/04 11:26:34;;;;;;;10.27;6.55;;;;;;;17.54;43.60;102059.31;5046485;28;20017;-64
2022/05/04 11:28:59;;;;;;;12.03;6.70;;;;;;;18.29;41.43;102062.19;5046016;28;20071;-64
2022/05/04 11:31:25;;;;;;;11.98;7.10;;;;;;;18.71;39.22;102058.44;5045580;28;20382;-65
2022/05/04 11:33:51;;;;;;;9.27;5.53;;;;;;;18.55;38.85;102054.69;5045991;28;20091;-65
2022/05/04 11:36:20;;;;;;;11.27;6.43;;;;;;;18.41;38.45;102055.41;5046273;28;20041;-65
2022/05/04 11:38:46;;;;;;;12.65;6.50;;;;;;;17.94;42.54;102057.50;5043958;28;20033;-64
2022/05/04 11:41:13;;;;;;;10.70;5.72;;;;;;;18.61;40.00;102047.34;5046935;28;20348;-64
2022/05/04 11:43:38;;;;;;;10.13;6.50;;;;;;;18.86;41.04;102046.13;5042002;28;20017;-62
2022/05/04 11:46:09;;;;;;;11.15;5.57;;;;;;;18.89;40.43;102045.97;5043315;28;20043;-65
2022/05/04 11:48:44;;;;;;;11.32;6.15;;;;;;;19.03;40.33;102039.94;5046326;28;20021;-64
2022/05/04 11:51:10;;;;;;;13.23;6.30;;;;;;;19.72;40.44;102039.13;5044149;28;20027;-65
2022/05/04 11:53:36;;;;;;;11.85;5.57;;;;;;;20.05;36.94;102039.09;5044002;28;20497;-66
2022/05/04 11:56:05;;;;;;;11.15;5.35;;;;;;;20.57;35.35;102044.28;5044833;28;20021;-66
2022/05/04 11:58:32;;;;;;;11.88;6.18;;;;;;;20.75;33.72;102031.66;5045478;28;20032;-64
2022/05/04 12:00:59;;;;;;;15.93;6.10;;;;;;;21.04;34.06;102030.91;5042859;28;20024;-64